Westover ARB,Metropolitan Airport Springfield,Chicopee US
ICAO: KCEF
IATA: CEF
Category: Medium
Scheduled Services: No

Elevation: 241 ft
TransAlt. 18000 ft.

Airport Communications:
BRADLEY APP/DEP:125.35
ATIS:114
GND:118.35
PMSV METRO:27.475
COMD POST 439 AW:25.21
PTD:37.22
TWR:134.85
UNICOM:123

KCEF Zoom In..

If you have problems with the map follow the link
https://www.worldairports.se/pages/airport.php?
ICAO=KCEF

Runways:

(A) RW 05 length 11597 ft width 301 ft
ILS 109.90 / hdg 48

(B) RW 15 length 7082 ft width 150 ft
---- / hdg 149

(C) RW 23 length 11597 ft width 301 ft
ILS 109.90 / hdg 228

(D) RW 33 length 7082 ft width 150 ft
---- / hdg 329

Location; KCEF
Day. 07 / Time. 07.56 Zulu
* Altimeter: 30.17
* Temperature: -03° c. -26.6°f.
* Wind from: 290° Speed 05 kn.
Dewpoint: -08° c.
Visibility: 10 Statute Miles.
Clouds: Overcast 2900 ft.

KCEF 070756Z AUTO 29005KT 10SM OVC029 M03/M08 A3017 RMK AO2 SLP226 T10291076


Wind From 290°
Speed 05 kn.

 
 
jpsmedia worldairports.se 2019   terms of use